Time;durP1;ratioP1;P1;durP2;ratioP2;P2;SDS_P1;SDS_P2;PMS_P1;PMS_P2;Temp;Humidity;BMP_temperature;BMP_pressure;BME280_temperature;BME280_humidity;BME280_pressure;Samples;Min_cycle;Max_cycle;Signal;HPM_P1;HPM_P2
2021/12/18 00:01:30;;;;;;;5.18;1.70;;;9.60;99.90;;;;;;5150040;27;20048;-83
2021/12/18 00:03:58;;;;;;;4.55;1.63;;;9.60;99.90;;;;;;5132291;27;20055;-82
2021/12/18 00:06:27;;;;;;;6.80;1.58;;;9.50;99.90;;;;;;5132270;27;20050;-82
2021/12/18 00:08:55;;;;;;;3.63;1.40;;;9.60;99.90;;;;;;5132826;27;20051;-82
2021/12/18 00:11:22;;;;;;;4.88;1.70;;;9.50;99.90;;;;;;5114949;28;20260;-82
2021/12/18 00:13:49;;;;;;;6.93;2.10;;;9.50;99.90;;;;;;5149818;27;20117;-82
2021/12/18 00:16:15;;;;;;;5.57;1.55;;;9.40;99.90;;;;;;5131522;27;20035;-82
2021/12/18 00:18:41;;;;;;;8.18;1.48;;;9.30;99.90;;;;;;5114322;28;20057;-82
2021/12/18 00:21:09;;;;;;;4.38;1.40;;;9.30;99.90;;;;;;5131719;27;20052;-82
2021/12/18 00:23:34;;;;;;;6.63;1.27;;;9.30;99.90;;;;;;5132111;27;20048;-82
2021/12/18 00:26:00;;;;;;;7.80;1.45;;;9.30;99.90;;;;;;5148900;27;20050;-82
2021/12/18 00:28:26;;;;;;;7.78;1.80;;;9.30;99.90;;;;;;5132580;27;20054;-82
2021/12/18 00:30:51;;;;;;;5.85;1.20;;;9.30;99.90;;;;;;5132188;27;20405;-82
2021/12/18 00:33:17;;;;;;;8.77;1.55;;;9.30;99.90;;;;;;5149237;27;20050;-82
2021/12/18 00:35:44;;;;;;;4.25;1.40;;;9.30;99.90;;;;;;5132021;27;20093;-82
2021/12/18 00:38:10;;;;;;;8.50;1.73;;;9.30;99.90;;;;;;5131973;27;20052;-82
2021/12/18 00:40:48;;;;;;;4.75;1.40;;;9.20;99.90;;;;;;5149253;27;20054;-82
2021/12/18 00:43:37;;;;;;;6.50;1.50;;;9.20;99.90;;;;;;5148890;27;20051;-82
2021/12/18 00:46:04;;;;;;;9.18;2.03;;;9.20;99.90;;;;;;5114719;28;20436;-82
2021/12/18 00:48:30;;;;;;;5.53;1.77;;;9.20;99.90;;;;;;5148141;27;20059;-82
2021/12/18 00:50:55;;;;;;;9.90;2.30;;;9.20;99.90;;;;;;5148986;27;20103;-82
2021/12/18 00:53:21;;;;;;;8.00;2.10;;;9.30;99.90;;;;;;5149114;27;20048;-82
2021/12/18 00:55:49;;;;;;;6.97;2.45;;;9.30;99.90;;;;;;5131531;27;20509;-82
2021/12/18 00:58:14;;;;;;;7.07;2.10;;;9.40;99.90;;;;;;5148527;27;20441;-82
2021/12/18 01:00:42;;;;;;;11.60;2.55;;;9.30;99.90;;;;;;5131399;27;20035;-82
2021/12/18 01:03:16;;;;;;;8.70;2.72;;;9.20;99.90;;;;;;5148728;27;20058;-82
2021/12/18 01:05:43;;;;;;;8.25;2.45;;;9.20;99.90;;;;;;5130995;27;20487;-82
2021/12/18 01:08:09;;;;;;;12.07;2.58;;;9.00;99.90;;;;;;5114270;28;20380;-82
2021/12/18 01:13:22;;;;;;;10.40;3.72;;;8.90;99.90;;;;;;5148527;27;20086;-82
2021/12/18 01:15:51;;;;;;;8.30;3.30;;;8.90;99.90;;;;;;5149033;27;20047;-82
2021/12/18 01:23:46;;;;;;;10.52;3.33;;;9.10;99.90;;;;;;5147972;27;20471;-81
2021/12/18 01:26:13;;;;;;;11.48;3.00;;;9.10;99.90;;;;;;5148084;27;20039;-82
2021/12/18 01:28:39;;;;;;;14.48;3.17;;;9.10;99.90;;;;;;5148517;27;20043;-82
2021/12/18 01:31:05;;;;;;;12.02;3.45;;;9.10;99.90;;;;;;5148473;27;20084;-82
2021/12/18 01:33:33;;;;;;;14.43;2.83;;;9.10;99.90;;;;;;5131007;27;20505;-82
2021/12/18 01:36:02;;;;;;;11.30;3.60;;;9.10;99.90;;;;;;5130538;27;20047;-82
2021/12/18 01:38:30;;;;;;;11.68;3.15;;;9.00;99.90;;;;;;5130747;27;20051;-82
2021/12/18 01:40:58;;;;;;;8.43;2.65;;;8.90;99.90;;;;;;5130529;27;20043;-82
2021/12/18 01:53:42;;;;;;;12.15;2.80;;;8.80;99.90;;;;;;5148350;27;20062;-82
2021/12/18 01:56:08;;;;;;;6.30;2.42;;;8.70;99.90;;;;;;5148027;27;20043;-82
2021/12/18 01:58:35;;;;;;;5.43;2.05;;;8.70;99.90;;;;;;5147764;27;20398;-82
2021/12/18 02:01:05;;;;;;;6.22;2.08;;;8.80;99.90;;;;;;5113418;28;20091;-82
2021/12/18 02:03:32;;;;;;;6.15;2.00;;;8.70;99.90;;;;;;5096014;28;20554;-82
2021/12/18 02:05:57;;;;;;;6.22;2.60;;;8.80;99.90;;;;;;5113194;28;20047;-82
2021/12/18 02:08:27;;;;;;;5.82;1.92;;;8.90;99.90;;;;;;5147485;27;20409;-82
2021/12/18 02:11:09;;;;;;;7.35;2.20;;;8.90;99.90;;;;;;5147674;27;20058;-81
2021/12/18 02:13:47;;;;;;;7.65;2.13;;;9.00;99.90;;;;;;5147415;27;20498;-82
2021/12/18 02:19:35;;;;;;;5.45;1.95;;;8.80;99.90;;;;;;5127561;27;20043;-82
2021/12/18 02:21:43;;;;;;;2.83;0.85;;;8.80;99.90;;;;;;5126882;27;20047;-82
2021/12/18 02:24:10;;;;;;;7.20;1.60;;;8.90;99.90;;;;;;5147209;27;20478;-82
2021/12/18 02:26:36;;;;;;;13.75;2.13;;;9.00;99.90;;;;;;5147222;27;20035;-82
2021/12/18 02:29:04;;;;;;;7.15;1.88;;;9.00;99.90;;;;;;5147403;27;20074;-82
2021/12/18 02:31:30;;;;;;;10.80;1.75;;;9.10;99.90;;;;;;5129798;28;20050;-82
2021/12/18 02:33:57;;;;;;;7.22;1.77;;;9.20;99.90;;;;;;5112726;28;20122;-82
2021/12/18 02:36:24;;;;;;;9.60;2.75;;;9.10;99.90;;;;;;5112838;28;20043;-82
2021/12/18 02:39:05;;;;;;;11.30;2.60;;;9.20;99.90;;;;;;5129830;28;20442;-82
2021/12/18 02:41:36;;;;;;;14.77;2.95;;;9.30;99.90;;;;;;5130563;27;20383;-82
2021/12/18 02:44:05;;;;;;;6.95;2.40;;;9.40;99.90;;;;;;5147366;27;20139;-82
2021/12/18 02:46:31;;;;;;;13.30;2.47;;;9.40;99.90;;;;;;5147072;27;20552;-82
2021/12/18 02:49:03;;;;;;;10.35;2.78;;;9.40;99.90;;;;;;5128728;27;20048;-82
2021/12/18 02:51:29;;;;;;;18.42;2.92;;;9.50;99.90;;;;;;5112769;28;20055;-82
2021/12/18 02:53:55;;;;;;;21.02;3.55;;;9.50;99.90;;;;;;5147287;27;20047;-82
2021/12/18 02:56:23;;;;;;;8.90;2.33;;;9.40;99.90;;;;;;5146872;27;20467;-82
2021/12/18 02:58:57;;;;;;;9.40;2.10;;;9.50;99.90;;;;;;5112659;28;20055;-81
2021/12/18 03:01:26;;;;;;;5.38;1.60;;;9.40;99.90;;;;;;5147199;27;20075;-82
2021/12/18 03:03:54;;;;;;;5.82;1.40;;;9.30;99.90;;;;;;5095422;28;20490;-82
2021/12/18 03:20:54;;;;;;;6.00;1.35;;;9.30;99.90;;;;;;5146664;27;20055;-82
2021/12/18 03:25:29;;;;;;;15.95;2.85;;;9.20;99.90;;;;;;5147071;27;20196;-82
2021/12/18 03:27:58;;;;;;;9.18;2.80;;;9.20;99.90;;;;;;5131582;27;20130;-82
2021/12/18 03:30:24;;;;;;;16.27;3.47;;;9.10;99.90;;;;;;5116295;28;20387;-82
2021/12/18 03:32:50;;;;;;;15.07;3.20;;;9.20;99.90;;;;;;5133094;27;20046;-82
2021/12/18 03:35:17;;;;;;;6.97;2.38;;;9.20;99.90;;;;;;5150480;27;20134;-82
2021/12/18 03:37:44;;;;;;;5.45;2.17;;;9.20;99.90;;;;;;5115800;28;20403;-82
2021/12/18 03:40:13;;;;;;;22.98;3.70;;;9.20;99.90;;;;;;5150893;27;20040;-82
2021/12/18 03:42:39;;;;;;;11.43;2.63;;;9.40;99.90;;;;;;5150677;27;20138;-82
2021/12/18 03:45:06;;;;;;;12.80;3.00;;;9.30;99.90;;;;;;5133224;27;20126;-81
2021/12/18 03:47:32;;;;;;;9.40;2.75;;;9.30;99.90;;;;;;5115866;28;20051;-82
2021/12/18 03:49:58;;;;;;;8.50;2.35;;;9.40;99.90;;;;;;5114972;28;20059;-82
2021/12/18 03:52:24;;;;;;;22.85;3.28;;;9.50;99.90;;;;;;5116168;28;20051;-82
2021/12/18 03:54:49;;;;;;;11.00;2.13;;;9.60;99.90;;;;;;5150025;27;20055;-82
2021/12/18 03:57:15;;;;;;;7.25;1.88;;;9.50;99.90;;;;;;5132924;27;20513;-82
2021/12/18 03:59:41;;;;;;;4.05;1.63;;;9.40;99.90;;;;;;5149880;27;20040;-82
2021/12/18 04:02:07;;;;;;;8.07;1.45;;;9.30;99.90;;;;;;5132790;27;20122;-82
2021/12/18 04:04:32;;;;;;;3.92;1.30;;;9.40;99.90;;;;;;5150065;27;20097;-82
2021/12/18 04:06:59;;;;;;;7.63;1.10;;;9.30;99.90;;;;;;5149446;27;20054;-82
2021/12/18 04:09:26;;;;;;;8.10;1.30;;;9.40;99.90;;;;;;5132939;27;20047;-82
2021/12/18 04:11:51;;;;;;;9.80;1.17;;;9.20;99.90;;;;;;5149915;27;20611;-82
2021/12/18 04:14:20;;;;;;;11.57;1.40;;;9.00;99.90;;;;;;5132246;27;20051;-82
2021/12/18 04:16:45;;;;;;;7.00;1.15;;;9.00;99.90;;;;;;5114254;28;20388;-82
2021/12/18 04:19:11;;;;;;;5.32;1.10;;;9.00;99.90;;;;;;5132019;27;20088;-82
2021/12/18 04:21:37;;;;;;;13.85;1.67;;;9.10;99.90;;;;;;5132410;27;20039;-82
2021/12/18 04:24:03;;;;;;;2.72;0.93;;;9.00;99.90;;;;;;5132057;27;20505;-82
2021/12/18 04:26:33;;;;;;;12.10;1.58;;;9.00;99.90;;;;;;5131617;27;20513;-81
2021/12/18 04:29:01;;;;;;;6.65;1.10;;;9.00;99.90;;;;;;5115079;28;20047;-82
2021/12/18 04:31:27;;;;;;;9.52;1.13;;;9.00;99.90;;;;;;5149212;27;20047;-82
2021/12/18 04:33:53;;;;;;;4.07;1.05;;;9.00;99.90;;;;;;5131556;27;20538;-82
2021/12/18 04:36:19;;;;;;;6.13;0.88;;;9.00;99.90;;;;;;5115012;28;20074;-82
2021/12/18 04:38:45;;;;;;;9.43;1.10;;;9.10;99.90;;;;;;5113803;28;20040;-82
2021/12/18 04:41:12;;;;;;;11.57;1.30;;;9.20;99.90;;;;;;5131772;27;20059;-82
2021/12/18 04:43:38;;;;;;;15.73;1.67;;;9.20;99.90;;;;;;5114716;28;20043;-82
2021/12/18 04:46:04;;;;;;;7.15;1.50;;;9.20;99.90;;;;;;5148670;27;20479;-82
2021/12/18 04:48:29;;;;;;;13.25;1.80;;;9.00;99.90;;;;;;5131119;27;20105;-82
2021/12/18 04:50:55;;;;;;;8.73;1.00;;;9.10;99.90;;;;;;5131790;27;20048;-82
2021/12/18 04:53:21;;;;;;;14.48;1.80;;;9.10;99.90;;;;;;5114665;28;20134;-82
2021/12/18 04:55:46;;;;;;;5.90;1.70;;;9.00;99.90;;;;;;5131407;27;20069;-82
2021/12/18 04:58:12;;;;;;;15.52;2.03;;;9.00;99.90;;;;;;5131561;27;20075;-82
2021/12/18 05:00:40;;;;;;;8.10;2.10;;;9.00;99.90;;;;;;5131544;27;20550;-82
2021/12/18 05:03:10;;;;;;;6.57;1.73;;;9.00;99.90;;;;;;5148832;27;20105;-82
2021/12/18 05:05:36;;;;;;;7.20;1.85;;;9.10;99.90;;;;;;5130199;27;20076;-82
2021/12/18 05:08:04;;;;;;;7.00;1.92;;;9.20;99.90;;;;;;5131229;27;20051;-82
2021/12/18 05:10:29;;;;;;;16.25;2.50;;;9.30;99.90;;;;;;5117460;27;20083;-82
2021/12/18 05:12:56;;;;;;;7.80;2.42;;;9.30;99.90;;;;;;5117594;27;20532;-82
2021/12/18 05:15:23;;;;;;;9.98;2.28;;;9.30;99.90;;;;;;5117187;27;20197;-82
2021/12/18 05:17:49;;;;;;;10.68;2.63;;;9.40;99.90;;;;;;5134680;27;20050;-82
2021/12/18 05:20:15;;;;;;;17.05;3.00;;;9.50;99.90;;;;;;5133968;27;20394;-82
2021/12/18 05:22:41;;;;;;;10.50;2.70;;;9.60;99.90;;;;;;5117666;27;20050;-82
2021/12/18 05:25:08;;;;;;;8.88;2.38;;;9.50;99.90;;;;;;5134305;27;20043;-82
2021/12/18 05:27:36;;;;;;;23.35;3.65;;;9.50;99.90;;;;;;5117368;27;20047;-82
2021/12/18 05:30:05;;;;;;;8.30;2.65;;;9.60;99.90;;;;;;5134057;27;20049;-82
2021/12/18 05:32:31;;;;;;;26.90;3.55;;;9.50;99.90;;;;;;5134680;27;20035;-82
2021/12/18 05:34:57;;;;;;;10.88;3.00;;;9.60;99.90;;;;;;5117130;27;20066;-82
2021/12/18 05:39:51;;;;;;;19.45;3.97;;;9.60;99.90;;;;;;5134330;27;20046;-82
2021/12/18 05:42:18;;;;;;;12.82;3.35;;;9.70;99.90;;;;;;5116923;27;20096;-82
2021/12/18 05:44:44;;;;;;;8.68;2.78;;;9.70;99.90;;;;;;5134426;27;20451;-82
2021/12/18 05:47:11;;;;;;;10.70;3.58;;;9.70;99.90;;;;;;5133686;27;20487;-82
2021/12/18 05:49:37;;;;;;;19.42;3.55;;;9.80;99.90;;;;;;5132802;27;20487;-82
2021/12/18 05:52:04;;;;;;;22.92;4.32;;;9.80;99.90;;;;;;5133885;27;20042;-82
2021/12/18 05:54:34;;;;;;;14.05;3.00;;;9.80;99.90;;;;;;5116409;27;20486;-82
2021/12/18 05:57:04;;;;;;;12.18;3.40;;;9.80;99.90;;;;;;5117456;27;20086;-82
2021/12/18 05:59:30;;;;;;;11.00;3.47;;;9.70;99.90;;;;;;5133850;27;20058;-82
2021/12/18 06:01:56;;;;;;;16.48;3.50;;;9.80;99.90;;;;;;5117412;27;20054;-82
2021/12/18 06:04:22;;;;;;;13.70;3.70;;;9.90;99.90;;;;;;5133803;27;20047;-82
2021/12/18 06:06:47;;;;;;;17.30;4.10;;;9.90;99.90;;;;;;5099317;27;20062;-82
2021/12/18 06:09:13;;;;;;;17.48;4.00;;;9.90;99.90;;;;;;5133544;27;20051;-82
2021/12/18 06:11:40;;;;;;;22.92;5.10;;;9.90;99.90;;;;;;5133838;27;20045;-82
2021/12/18 06:14:07;;;;;;;18.05;4.88;;;9.90;99.90;;;;;;5133483;27;20049;-82
2021/12/18 06:16:33;;;;;;;10.23;3.58;;;9.80;99.90;;;;;;5133642;27;20054;-82
2021/12/18 06:18:59;;;;;;;25.63;5.22;;;9.80;99.90;;;;;;5133164;27;20096;-82
2021/12/18 06:21:25;;;;;;;25.20;5.10;;;9.90;99.90;;;;;;5116448;27;20436;-82
2021/12/18 06:23:54;;;;;;;36.92;6.07;;;9.90;99.90;;;;;;5133538;27;20043;-81
2021/12/18 06:26:21;;;;;;;20.77;5.47;;;9.80;99.90;;;;;;5133087;27;20088;-82
2021/12/18 06:28:47;;;;;;;17.38;4.97;;;9.90;99.90;;;;;;5117007;28;20129;-82
2021/12/18 06:31:13;;;;;;;20.60;5.28;;;9.90;99.90;;;;;;5116077;28;20087;-82
2021/12/18 06:33:39;;;;;;;13.63;4.65;;;10.00;99.90;;;;;;5116378;28;20047;-82
2021/12/18 06:36:04;;;;;;;29.63;5.45;;;10.10;99.90;;;;;;5116299;28;20039;-82
2021/12/18 06:38:30;;;;;;;29.65;6.15;;;10.20;99.90;;;;;;5150394;27;20051;-82
2021/12/18 06:40:56;;;;;;;20.63;5.45;;;10.10;99.90;;;;;;5133334;28;20047;-82
2021/12/18 06:43:22;;;;;;;36.05;7.60;;;10.10;99.90;;;;;;5133131;27;20054;-82
2021/12/18 06:45:48;;;;;;;31.80;7.05;;;10.00;99.90;;;;;;5116387;28;20046;-82
2021/12/18 06:48:13;;;;;;;27.70;7.00;;;10.10;99.90;;;;;;5133067;27;20082;-82
2021/12/18 06:50:39;;;;;;;17.52;5.93;;;10.10;99.90;;;;;;5115624;28;20138;-82
2021/12/18 06:53:06;;;;;;;34.35;7.70;;;10.00;99.90;;;;;;5133205;28;20043;-82
2021/12/18 06:55:32;;;;;;;39.33;8.10;;;10.30;99.90;;;;;;5133396;28;20047;-82
2021/12/18 06:57:58;;;;;;;28.08;6.72;;;10.10;99.90;;;;;;5116007;28;20039;-82
2021/12/18 07:00:26;;;;;;;28.75;6.80;;;10.10;99.90;;;;;;5133841;27;20050;-82
2021/12/18 07:02:52;;;;;;;31.17;7.28;;;10.10;99.90;;;;;;5135508;27;20047;-82
2021/12/18 07:05:18;;;;;;;34.80;7.65;;;10.20;99.90;;;;;;5137276;27;20039;-82
2021/12/18 07:07:44;;;;;;;17.10;5.80;;;10.10;99.90;;;;;;5136907;27;20089;-82
2021/12/18 07:10:12;;;;;;;18.70;6.00;;;10.10;99.90;;;;;;5119550;27;20074;-82
2021/12/18 07:12:38;;;;;;;26.15;6.82;;;10.10;99.90;;;;;;5172068;27;20100;-82
2021/12/18 07:15:06;;;;;;;25.42;6.20;;;10.20;99.90;;;;;;5137071;27;20441;-82
2021/12/18 07:17:32;;;;;;;21.92;6.10;;;10.30;99.90;;;;;;5120133;27;20091;-82
2021/12/18 07:19:57;;;;;;;19.35;5.68;;;10.40;99.90;;;;;;5119174;27;20055;-82
2021/12/18 07:22:23;;;;;;;12.02;4.28;;;10.40;99.90;;;;;;5119771;27;20130;-82
2021/12/18 07:24:49;;;;;;;15.68;5.28;;;10.30;99.90;;;;;;5119842;27;20133;-82
2021/12/18 07:27:15;;;;;;;16.52;3.80;;;10.10;99.90;;;;;;5136400;27;20043;-82
2021/12/18 07:29:41;;;;;;;14.52;4.53;;;10.00;99.90;;;;;;5136941;27;20035;-82
2021/12/18 07:32:08;;;;;;;20.02;4.85;;;10.00;99.90;;;;;;5136235;27;20134;-82
2021/12/18 07:34:35;;;;;;;19.85;4.90;;;10.00;99.90;;;;;;5119471;27;20039;-83
2021/12/18 07:37:00;;;;;;;20.90;4.43;;;9.90;99.90;;;;;;5136297;27;20046;-83
2021/12/18 07:39:26;;;;;;;19.02;5.03;;;10.10;99.90;;;;;;5119744;27;20133;-82
2021/12/18 07:41:52;;;;;;;14.82;4.20;;;10.00;99.90;;;;;;5102421;27;20450;-82
2021/12/18 07:44:17;;;;;;;12.52;4.07;;;10.00;99.90;;;;;;5136791;27;20089;-83
2021/12/18 07:46:43;;;;;;;21.13;4.72;;;10.10;99.90;;;;;;5119111;27;20486;-82
2021/12/18 07:49:09;;;;;;;16.38;4.53;;;10.20;99.90;;;;;;5118327;27;20383;-82
2021/12/18 07:51:35;;;;;;;16.92;4.35;;;10.20;99.90;;;;;;5119218;27;20054;-82
2021/12/18 07:54:02;;;;;;;15.88;4.47;;;10.20;99.90;;;;;;5119117;27;20039;-82
2021/12/18 07:56:28;;;;;;;17.85;4.57;;;10.10;99.90;;;;;;5119252;27;20509;-82
2021/12/18 07:58:53;;;;;;;17.75;4.18;;;10.10;99.90;;;;;;5119009;27;20050;-82
2021/12/18 08:01:19;;;;;;;19.65;4.65;;;9.90;99.90;;;;;;5118967;27;20054;-82
2021/12/18 08:03:45;;;;;;;13.98;4.68;;;10.00;99.90;;;;;;5135990;27;20050;-82
2021/12/18 08:06:11;;;;;;;16.33;4.50;;;10.10;99.90;;;;;;5118466;27;20494;-82
2021/12/18 08:08:37;;;;;;;16.38;4.78;;;10.20;99.90;;;;;;5102060;27;20569;-73
2021/12/18 08:11:03;;;;;;;14.50;3.95;;;10.30;99.90;;;;;;5136363;27;20078;-73
2021/12/18 08:13:29;;;;;;;11.68;3.60;;;10.30;99.90;;;;;;5136416;27;20047;-76
2021/12/18 08:15:55;;;;;;;15.48;4.20;;;10.30;99.90;;;;;;5135779;27;20043;-76
2021/12/18 08:18:20;;;;;;;20.48;4.30;;;10.30;99.90;;;;;;5118824;27;20085;-73
2021/12/18 08:20:46;;;;;;;17.98;4.18;;;10.20;99.90;;;;;;5135519;27;20047;-74
2021/12/18 08:23:12;;;;;;;15.45;3.88;;;10.20;99.90;;;;;;5135651;27;20157;-74
2021/12/18 08:25:38;;;;;;;21.90;4.65;;;10.20;99.90;;;;;;5135633;27;20390;-74
2021/12/18 08:28:05;;;;;;;12.13;3.33;;;10.20;99.90;;;;;;5135677;27;20133;-74
2021/12/18 08:30:34;;;;;;;14.93;4.75;;;10.10;99.90;;;;;;5135753;27;20111;-74
2021/12/18 08:33:00;;;;;;;16.10;4.65;;;10.20;99.90;;;;;;5135364;27;20099;-73
2021/12/18 08:35:28;;;;;;;21.20;6.13;;;10.30;99.90;;;;;;5135530;27;20051;-75
2021/12/18 08:37:55;;;;;;;23.38;6.72;;;10.30;99.90;;;;;;5135655;27;20043;-75
2021/12/18 08:40:21;;;;;;;25.70;10.00;;;10.20;99.90;;;;;;5135357;27;20160;-78
2021/12/18 08:42:47;;;;;;;68.38;32.80;;;10.00;99.90;;;;;;5135273;27;20051;-75
2021/12/18 08:45:13;;;;;;;70.28;36.80;;;9.90;99.90;;;;;;5135015;27;20490;-74
2021/12/18 08:47:40;;;;;;;30.70;16.85;;;10.00;99.90;;;;;;5134901;27;20047;-74
2021/12/18 08:50:07;;;;;;;15.43;6.32;;;10.00;99.90;;;;;;5134427;27;20047;-75
2021/12/18 08:52:33;;;;;;;13.05;4.47;;;10.10;99.90;;;;;;5135226;27;20055;-76
2021/12/18 08:55:00;;;;;;;13.63;3.10;;;10.10;99.90;;;;;;5134802;27;20043;-74
2021/12/18 08:57:26;;;;;;;14.43;3.70;;;10.10;99.90;;;;;;5142572;27;20051;-74
2021/12/18 08:59:52;;;;;;;10.98;3.40;;;10.20;99.90;;;;;;5169287;27;20051;-74
2021/12/18 09:02:17;;;;;;;12.15;4.20;;;10.20;99.90;;;;;;5134983;27;20051;-73
2021/12/18 09:04:43;;;;;;;9.10;2.80;;;10.30;99.90;;;;;;5117432;27;20051;-74
2021/12/18 09:07:09;;;;;;;9.85;2.45;;;10.20;99.90;;;;;;5134462;27;20050;-73
2021/12/18 09:09:35;;;;;;;13.30;4.68;;;10.20;99.90;;;;;;5135120;27;20058;-73
2021/12/18 09:12:00;;;;;;;16.73;3.40;;;10.20;99.90;;;;;;5117276;27;20046;-73
2021/12/18 09:14:26;;;;;;;18.48;4.72;;;10.20;99.90;;;;;;5117741;27;20051;-74
2021/12/18 09:16:53;;;;;;;21.75;8.80;;;10.40;99.90;;;;;;5134506;27;20137;-73
2021/12/18 09:19:19;;;;;;;18.48;6.95;;;10.40;99.90;;;;;;5134138;27;20122;-74
2021/12/18 09:21:45;;;;;;;8.65;2.58;;;10.50;99.90;;;;;;5106060;27;20052;-74
2021/12/18 09:24:11;;;;;;;15.65;4.80;;;10.40;99.90;;;;;;5108706;27;20554;-74
2021/12/18 09:26:37;;;;;;;13.65;5.32;;;10.40;99.90;;;;;;5132757;27;20035;-74
2021/12/18 09:29:02;;;;;;;17.23;4.32;;;10.40;99.90;;;;;;5117101;27;20043;-74
2021/12/18 09:31:28;;;;;;;9.77;2.80;;;10.30;99.90;;;;;;5133752;27;20051;-74
2021/12/18 09:33:54;;;;;;;7.47;2.88;;;10.20;99.90;;;;;;5133989;27;20117;-76
2021/12/18 09:36:20;;;;;;;13.00;3.28;;;10.30;99.90;;;;;;5134264;27;20043;-74
2021/12/18 09:38:46;;;;;;;18.35;3.50;;;10.50;99.90;;;;;;5090069;28;20078;-74
2021/12/18 09:41:11;;;;;;;14.40;4.25;;;10.40;99.90;;;;;;5084836;28;20050;-75
2021/12/18 09:43:37;;;;;;;16.02;3.55;;;10.40;99.90;;;;;;5112132;28;20047;-73
2021/12/18 09:46:09;;;;;;;16.95;4.43;;;10.50;99.90;;;;;;5130360;27;20467;-73
2021/12/18 09:48:40;;;;;;;13.68;4.22;;;10.50;99.90;;;;;;5113043;28;20056;-78
2021/12/18 09:51:09;;;;;;;17.05;5.18;;;10.50;99.90;;;;;;5113350;28;20056;-73
2021/12/18 09:53:35;;;;;;;18.20;6.13;;;10.30;99.90;;;;;;5114588;27;20118;-73
2021/12/18 09:56:04;;;;;;;15.05;8.35;;;10.10;99.90;;;;;;5130742;27;20135;-74
2021/12/18 09:58:31;;;;;;;19.40;5.85;;;10.10;99.90;;;;;;5113477;28;20044;-74
2021/12/18 10:00:57;;;;;;;14.50;5.88;;;10.10;99.90;;;;;;5096083;28;20390;-74
2021/12/18 10:03:49;;;;;;;22.95;7.78;;;10.20;99.90;;;;;;5113345;28;20071;-75
2021/12/18 10:06:44;;;;;;;21.50;5.78;;;10.30;99.90;;;;;;5113227;28;20487;-74
2021/12/18 10:09:31;;;;;;;15.05;5.70;;;10.30;99.90;;;;;;5105834;28;20059;-74
2021/12/18 10:12:00;;;;;;;24.23;10.00;;;10.50;99.90;;;;;;5113931;28;20498;-75
2021/12/18 10:14:40;;;;;;;21.67;5.78;;;10.50;99.90;;;;;;5113191;28;20039;-75
2021/12/18 10:17:19;;;;;;;21.15;7.05;;;10.50;99.90;;;;;;5113041;28;20047;-71
2021/12/18 10:19:45;;;;;;;12.60;6.53;;;10.50;99.90;;;;;;5113612;28;20094;-74
2021/12/18 10:22:12;;;;;;;14.13;5.60;;;10.50;99.90;;;;;;5125889;27;20075;-74
2021/12/18 10:24:44;;;;;;;15.80;6.70;;;10.50;99.90;;;;;;5127315;27;20047;-75
2021/12/18 10:27:17;;;;;;;17.67;6.10;;;10.50;99.90;;;;;;5133560;27;20031;-73
2021/12/18 10:29:42;;;;;;;19.27;4.72;;;10.40;99.90;;;;;;5133082;27;20090;-79
2021/12/18 10:32:10;;;;;;;13.57;5.63;;;10.30;99.90;;;;;;5132974;27;20054;-78
2021/12/18 10:34:37;;;;;;;21.35;6.88;;;10.40;99.90;;;;;;5126549;28;20093;-75
2021/12/18 10:37:14;;;;;;;11.90;4.60;;;10.40;99.90;;;;;;5129815;27;20047;-75
2021/12/18 10:39:53;;;;;;;9.25;3.42;;;10.30;99.90;;;;;;5151967;27;20048;-84
2021/12/18 10:42:40;;;;;;;10.85;3.08;;;10.10;99.90;;;;;;5117262;28;20048;-82
2021/12/18 10:45:23;;;;;;;16.88;8.52;;;10.10;99.90;;;;;;5117068;28;20078;-80
2021/12/18 10:47:54;;;;;;;12.73;5.57;;;10.00;99.90;;;;;;5099871;28;20069;-81
2021/12/18 10:50:41;;;;;;;13.20;3.92;;;10.20;99.90;;;;;;5116932;28;20110;-80
2021/12/18 10:53:12;;;;;;;;;;;10.10;99.90;;;;;;5117228;28;20043;-82
2021/12/18 10:55:43;;;;;;;21.40;5.50;;;9.90;99.90;;;;;;5100176;28;20282;-82
2021/12/18 10:58:12;;;;;;;15.05;5.40;;;10.00;99.90;;;;;;5117048;28;20408;-81
2021/12/18 11:00:53;;;;;;;17.88;5.55;;;10.10;99.90;;;;;;5099733;28;20051;-82
2021/12/18 11:03:35;;;;;;;10.68;3.72;;;10.00;99.90;;;;;;5116206;28;20498;-84
2021/12/18 11:06:12;;;;;;;12.10;3.95;;;10.00;99.90;;;;;;5116836;28;20047;-81
2021/12/18 11:08:59;;;;;;;14.43;4.20;;;10.10;99.90;;;;;;5116887;28;20054;-81
2021/12/18 11:14:09;;;;;;;11.75;3.50;;;9.90;99.90;;;;;;5116536;28;20130;-76
2021/12/18 11:16:37;;;;;;;13.57;3.42;;;10.10;99.90;;;;;;5116858;28;20517;-75
2021/12/18 11:19:13;;;;;;;12.45;3.45;;;10.20;99.90;;;;;;5115836;28;20087;-75
2021/12/18 11:21:41;;;;;;;11.93;3.72;;;10.20;99.90;;;;;;5116325;28;20053;-78
2021/12/18 11:24:08;;;;;;;9.95;2.75;;;10.40;99.90;;;;;;5116405;28;20051;-75
2021/12/18 11:26:42;;;;;;;11.85;2.95;;;10.60;99.90;;;;;;5115780;28;20055;-74
2021/12/18 11:29:51;;;;;;;7.55;2.95;;;10.60;99.90;;;;;;5099433;28;20090;-75
2021/12/18 11:32:18;;;;;;;14.00;3.10;;;10.60;99.90;;;;;;5115833;28;20048;-76
2021/12/18 11:34:46;;;;;;;14.82;2.95;;;10.60;99.90;;;;;;5116246;28;20055;-75
2021/12/18 11:37:14;;;;;;;26.70;14.65;;;10.60;99.90;;;;;;5117890;28;20040;-75
2021/12/18 11:39:41;;;;;;;10.60;4.35;;;10.60;99.90;;;;;;5099221;28;20568;-75
2021/12/18 11:42:08;;;;;;;12.25;4.63;;;10.40;99.90;;;;;;5150340;27;20130;-75
2021/12/18 11:44:52;;;;;;;15.50;4.18;;;10.20;99.90;;;;;;5115635;28;20458;-75
2021/12/18 11:47:37;;;;;;;10.13;2.95;;;10.30;99.90;;;;;;5115237;28;20046;-76
2021/12/18 11:50:18;;;;;;;7.35;2.63;;;10.40;99.90;;;;;;5125708;27;20052;-75
2021/12/18 11:53:01;;;;;;;18.27;3.17;;;10.40;99.90;;;;;;5097962;28;20044;-77
2021/12/18 11:55:31;;;;;;;11.38;2.45;;;10.70;99.90;;;;;;5113508;28;20184;-77
2021/12/18 11:58:25;;;;;;;8.18;2.85;;;10.50;99.90;;;;;;5150063;27;20409;-76
2021/12/18 12:00:55;;;;;;;11.57;2.95;;;10.50;99.90;;;;;;5115794;28;20046;-76
2021/12/18 12:03:50;;;;;;;11.48;2.35;;;10.50;99.90;;;;;;5115793;28;20051;-76
2021/12/18 12:06:19;;;;;;;11.50;2.60;;;10.60;99.90;;;;;;5113238;28;20051;-76
2021/12/18 12:08:45;;;;;;;17.92;3.00;;;10.50;99.90;;;;;;5150140;27;20051;-77
2021/12/18 12:11:18;;;;;;;12.13;2.55;;;10.60;99.90;;;;;;5115370;28;20429;-76
2021/12/18 12:13:55;;;;;;;10.05;2.70;;;10.80;99.90;;;;;;5149988;27;20058;-76
2021/12/18 12:16:46;;;;;;;16.10;3.25;;;10.80;99.90;;;;;;5151978;27;20044;-76
2021/12/18 12:19:35;;;;;;;12.82;3.40;;;10.90;99.90;;;;;;5116503;28;20510;-77
2021/12/18 12:22:05;;;;;;;17.40;3.50;;;10.90;99.90;;;;;;5150000;27;20050;-77
2021/12/18 12:24:50;;;;;;;11.25;3.30;;;10.80;99.90;;;;;;5114997;28;20126;-77
2021/12/18 12:27:25;;;;;;;12.10;3.10;;;10.70;99.90;;;;;;5118793;28;20047;-76
2021/12/18 12:29:52;;;;;;;16.40;3.40;;;10.60;99.90;;;;;;5150456;27;20043;-75
2021/12/18 12:32:20;;;;;;;11.38;2.90;;;10.60;99.90;;;;;;5098159;28;20054;-76
2021/12/18 12:35:01;;;;;;;17.52;3.20;;;10.70;99.90;;;;;;5149473;27;20443;-74
2021/12/18 12:37:27;;;;;;;17.55;3.30;;;10.70;99.90;;;;;;5149080;27;20048;-75
2021/12/18 12:39:57;;;;;;;12.48;2.67;;;10.70;99.90;;;;;;5149268;27;20048;-75
2021/12/18 12:42:23;;;;;;;12.23;2.90;;;10.60;99.90;;;;;;5114987;28;20547;-75
2021/12/18 12:45:06;;;;;;;14.60;3.42;;;10.60;99.90;;;;;;5099381;28;20058;-73
2021/12/18 12:47:33;;;;;;;16.20;3.28;;;10.60;99.90;;;;;;5114964;28;20056;-73
2021/12/18 12:50:03;;;;;;;16.60;3.85;;;10.50;99.90;;;;;;5114834;28;20051;-73
2021/12/18 12:52:30;;;;;;;22.55;3.92;;;10.60;99.90;;;;;;5149312;27;20391;-74
2021/12/18 12:54:59;;;;;;;14.73;3.53;;;10.50;99.90;;;;;;5114570;28;20108;-75
2021/12/18 12:57:26;;;;;;;11.98;3.28;;;10.40;99.90;;;;;;5115449;28;20044;-73
2021/12/18 12:59:58;;;;;;;14.65;3.80;;;10.50;99.90;;;;;;5113737;28;20055;-73
2021/12/18 13:02:29;;;;;;;12.75;3.53;;;10.30;99.90;;;;;;5148142;27;20487;-73
2021/12/18 13:05:07;;;;;;;17.55;3.40;;;10.40;99.90;;;;;;5114571;28;20058;-73
2021/12/18 13:07:35;;;;;;;15.35;3.80;;;10.30;99.90;;;;;;5114216;28;20043;-74
2021/12/18 13:10:01;;;;;;;11.52;3.05;;;10.40;99.90;;;;;;5113879;28;20047;-74
2021/12/18 13:12:26;;;;;;;16.10;3.40;;;10.40;99.90;;;;;;5148143;27;20043;-74
2021/12/18 13:14:52;;;;;;;21.83;3.55;;;10.50;99.90;;;;;;5113551;28;20085;-74
2021/12/18 13:17:19;;;;;;;16.77;3.42;;;10.50;99.90;;;;;;5113444;28;20130;-74
2021/12/18 13:20:08;;;;;;;18.40;4.00;;;10.60;99.90;;;;;;5112925;28;20051;-74
2021/12/18 13:22:36;;;;;;;15.23;3.72;;;10.60;99.90;;;;;;5113571;28;20091;-74
2021/12/18 13:25:12;;;;;;;14.00;3.70;;;10.70;99.90;;;;;;5113227;28;20143;-73
2021/12/18 13:27:41;;;;;;;15.52;4.03;;;10.60;99.90;;;;;;5113672;28;20047;-72
2021/12/18 13:30:15;;;;;;;17.02;3.33;;;10.60;99.90;;;;;;5113960;28;20055;-74
2021/12/18 13:32:55;;;;;;;16.25;3.72;;;10.50;99.90;;;;;;5114319;28;20047;-76
2021/12/18 13:35:23;;;;;;;16.52;4.20;;;10.40;99.90;;;;;;5113722;28;20047;-76
2021/12/18 13:38:09;;;;;;;12.45;4.07;;;10.20;99.90;;;;;;5113537;28;20079;-76